createdAt,value
2019-01-14T00:01:45.736Z,99.90
2019-01-14T00:04:12.631Z,99.90
2019-01-14T00:06:39.508Z,99.90
2019-01-14T00:09:07.729Z,99.90
2019-01-14T00:11:34.617Z,99.90
2019-01-14T00:14:01.641Z,99.90
2019-01-14T00:16:32.621Z,99.90
2019-01-14T00:18:59.344Z,99.90
2019-01-14T00:21:26.407Z,99.90
2019-01-14T00:23:53.307Z,99.90
2019-01-14T00:26:20.155Z,99.90
2019-01-14T00:28:47.000Z,99.90
2019-01-14T00:31:13.835Z,99.90
2019-01-14T00:33:40.706Z,99.90
2019-01-14T00:36:07.579Z,99.90
2019-01-14T00:38:34.308Z,99.90
2019-01-14T00:41:04.556Z,99.90
2019-01-14T00:43:34.259Z,99.90
2019-01-14T00:46:01.111Z,99.90
2019-01-14T00:48:27.978Z,99.90
2019-01-14T00:50:54.864Z,99.90
2019-01-14T00:53:21.879Z,99.90
2019-01-14T00:55:48.607Z,99.90
2019-01-14T00:58:15.487Z,99.90
2019-01-14T01:00:42.315Z,99.90
2019-01-14T01:03:09.038Z,99.90
2019-01-14T01:05:35.915Z,99.90
2019-01-14T01:08:03.724Z,99.90
2019-01-14T01:10:30.692Z,99.90
2019-01-14T01:12:57.765Z,99.90
2019-01-14T01:15:24.709Z,99.90
2019-01-14T01:17:51.827Z,99.90
2019-01-14T01:20:19.779Z,99.90
2019-01-14T01:22:46.859Z,99.90
2019-01-14T01:25:14.152Z,99.90
2019-01-14T01:27:40.883Z,99.90
2019-01-14T01:30:10.606Z,99.90
2019-01-14T01:32:37.418Z,99.90
2019-01-14T01:35:06.027Z,99.90
2019-01-14T01:37:32.793Z,99.90
2019-01-14T01:39:59.685Z,99.90
2019-01-14T01:42:26.630Z,99.90
2019-01-14T01:44:58.203Z,99.90
2019-01-14T01:47:24.987Z,99.90
2019-01-14T01:49:51.756Z,99.90
2019-01-14T01:52:18.595Z,99.90
2019-01-14T01:54:46.663Z,99.90
2019-01-14T01:57:14.992Z,99.90
2019-01-14T01:59:41.919Z,99.90
2019-01-14T02:02:08.779Z,99.90
2019-01-14T02:04:35.723Z,99.90
2019-01-14T02:07:02.706Z,99.90
2019-01-14T02:09:29.458Z,99.90
2019-01-14T02:11:56.228Z,99.90
2019-01-14T02:14:23.363Z,99.90
2019-01-14T02:16:50.467Z,99.90
2019-01-14T02:19:17.459Z,99.90
2019-01-14T02:21:44.423Z,99.90
2019-01-14T02:24:11.294Z,99.90
2019-01-14T02:26:38.317Z,99.90
2019-01-14T02:29:05.302Z,99.90
2019-01-14T02:31:32.145Z,99.90
2019-01-14T02:33:59.069Z,99.90
2019-01-14T02:36:25.879Z,99.90
2019-01-14T02:38:52.743Z,99.90
2019-01-14T02:41:19.603Z,99.90
2019-01-14T02:43:46.496Z,99.90
2019-01-14T02:46:13.219Z,99.90
2019-01-14T02:48:40.163Z,99.90
2019-01-14T02:51:07.026Z,99.90
2019-01-14T02:53:33.922Z,99.90
2019-01-14T02:56:01.094Z,99.90
2019-01-14T02:58:27.987Z,99.90
2019-01-14T03:00:54.750Z,99.90
2019-01-14T03:03:21.500Z,99.90
2019-01-14T03:05:48.359Z,99.90
2019-01-14T03:08:15.204Z,99.90
2019-01-14T03:10:42.186Z,99.90
2019-01-14T03:13:09.079Z,99.90
2019-01-14T03:15:35.892Z,99.90
2019-01-14T03:18:02.755Z,99.90
2019-01-14T03:20:29.708Z,99.90
2019-01-14T03:22:56.665Z,99.90
2019-01-14T03:25:23.552Z,99.90
2019-01-14T03:27:50.366Z,99.90
2019-01-14T03:30:18.156Z,99.90
2019-01-14T03:32:44.989Z,99.90
2019-01-14T03:35:12.004Z,99.90
2019-01-14T03:37:38.964Z,99.90
2019-01-14T03:40:08.543Z,99.90
2019-01-14T03:42:35.404Z,99.90
2019-01-14T03:45:02.787Z,99.90
2019-01-14T03:47:29.655Z,99.90
2019-01-14T03:49:56.656Z,99.90
2019-01-14T03:52:23.475Z,99.90
2019-01-14T03:54:55.115Z,99.90
2019-01-14T03:57:22.506Z,99.90
2019-01-14T03:59:56.026Z,99.90
2019-01-14T04:02:24.719Z,99.90
2019-01-14T04:04:51.502Z,99.90
2019-01-14T04:07:28.291Z,99.90
2019-01-14T04:09:55.207Z,99.90
2019-01-14T04:12:29.889Z,99.90
2019-01-14T04:15:03.367Z,99.90
2019-01-14T04:17:30.342Z,99.90
2019-01-14T04:19:57.338Z,99.90
2019-01-14T04:22:24.335Z,99.90
2019-01-14T04:24:51.032Z,99.90
2019-01-14T04:27:17.766Z,99.90
2019-01-14T04:29:44.484Z,99.90
2019-01-14T04:32:11.208Z,99.90
2019-01-14T04:34:38.105Z,99.90
2019-01-14T04:37:04.963Z,99.90
2019-01-14T04:39:32.519Z,99.90
2019-01-14T04:41:59.264Z,99.90
2019-01-14T04:44:32.434Z,99.90
2019-01-14T04:46:59.467Z,99.90
2019-01-14T04:49:26.243Z,99.90
2019-01-14T04:51:53.010Z,99.90
2019-01-14T04:54:19.905Z,99.90
2019-01-14T04:56:46.676Z,99.90
2019-01-14T04:59:13.378Z,99.90
2019-01-14T05:01:40.111Z,99.90
2019-01-14T05:04:07.090Z,99.90
2019-01-14T05:06:34.095Z,99.90
2019-01-14T05:09:01.015Z,99.90
2019-01-14T05:11:27.871Z,99.90
2019-01-14T05:13:54.633Z,99.90
2019-01-14T05:16:21.358Z,99.90
2019-01-14T05:18:48.494Z,99.90
2019-01-14T05:21:15.422Z,99.90
2019-01-14T05:23:42.287Z,99.90
2019-01-14T05:26:09.453Z,99.90
2019-01-14T05:28:40.368Z,99.90
2019-01-14T05:31:11.865Z,99.90
2019-01-14T05:33:38.800Z,99.90
2019-01-14T05:36:05.764Z,99.90
2019-01-14T05:38:32.624Z,99.90
2019-01-14T05:40:59.490Z,99.90
2019-01-14T05:43:26.391Z,99.90
2019-01-14T05:45:53.254Z,99.90
2019-01-14T05:48:20.144Z,99.90
2019-01-14T05:50:47.004Z,99.90
2019-01-14T05:53:13.818Z,99.90
2019-01-14T05:55:40.661Z,99.90
2019-01-14T05:58:07.498Z,99.90
2019-01-14T06:00:52.215Z,99.90
2019-01-14T06:03:19.179Z,99.90
2019-01-14T06:05:46.036Z,99.90
2019-01-14T06:08:12.798Z,99.90
2019-01-14T06:10:39.627Z,99.90
2019-01-14T06:13:06.379Z,99.90
2019-01-14T06:15:33.479Z,99.90
2019-01-14T06:18:00.306Z,99.90
2019-01-14T06:20:28.283Z,99.90
2019-01-14T06:22:55.324Z,99.90
2019-01-14T06:25:22.146Z,99.90
2019-01-14T06:27:49.152Z,99.90
2019-01-14T06:30:18.671Z,99.90
2019-01-14T06:32:45.518Z,99.90
2019-01-14T06:35:12.579Z,99.90
2019-01-14T06:37:39.407Z,99.90
2019-01-14T06:40:08.206Z,99.90
2019-01-14T06:42:35.103Z,99.90
2019-01-14T06:45:02.212Z,99.90
2019-01-14T06:47:29.222Z,99.90
2019-01-14T06:49:55.963Z,99.90
2019-01-14T06:52:22.794Z,99.90
2019-01-14T06:54:49.631Z,99.90
2019-01-14T06:57:16.363Z,99.90
2019-01-14T06:59:43.356Z,99.90
2019-01-14T07:02:10.316Z,99.90
2019-01-14T07:04:37.158Z,99.90
2019-01-14T07:07:04.023Z,99.90
2019-01-14T07:09:30.779Z,99.90
2019-01-14T07:11:58.044Z,99.90
2019-01-14T07:14:24.875Z,99.90
2019-01-14T07:16:51.735Z,99.90
2019-01-14T07:19:18.468Z,99.90
2019-01-14T07:21:45.227Z,99.90
2019-01-14T07:24:12.139Z,99.90
2019-01-14T07:26:39.339Z,99.90
2019-01-14T07:29:06.489Z,99.90
2019-01-14T07:31:33.428Z,99.90
2019-01-14T07:34:00.275Z,99.90
2019-01-14T07:36:27.031Z,99.90
2019-01-14T07:38:54.055Z,99.90
2019-01-14T07:41:20.791Z,99.90
2019-01-14T07:43:47.774Z,99.90
2019-01-14T07:46:14.646Z,99.90
2019-01-14T07:48:41.363Z,99.90
2019-01-14T07:51:08.360Z,99.90
2019-01-14T07:53:35.189Z,99.90
2019-01-14T07:56:02.047Z,99.90
2019-01-14T07:58:28.983Z,99.90
2019-01-14T08:00:55.691Z,99.90
2019-01-14T08:03:22.560Z,99.90
2019-01-14T08:05:49.519Z,99.90
2019-01-14T08:08:16.243Z,99.90
2019-01-14T08:10:43.067Z,99.90
2019-01-14T08:13:09.949Z,99.90
2019-01-14T08:15:37.031Z,99.90
2019-01-14T08:18:03.844Z,99.90
2019-01-14T08:20:30.706Z,99.90
2019-01-14T08:22:57.581Z,99.90
2019-01-14T08:25:24.527Z,99.90
2019-01-14T08:27:51.534Z,99.90
2019-01-14T08:30:22.439Z,99.90
2019-01-14T08:32:49.430Z,99.90
2019-01-14T08:35:16.418Z,99.90
2019-01-14T08:37:43.230Z,99.90
2019-01-14T08:40:11.054Z,99.90
2019-01-14T08:42:38.049Z,99.90
2019-01-14T08:45:06.079Z,99.90
2019-01-14T08:47:33.059Z,99.90
2019-01-14T08:50:00.288Z,99.90
2019-01-14T08:52:27.347Z,99.90
2019-01-14T08:54:54.111Z,99.90
2019-01-14T08:57:20.996Z,99.90
2019-01-14T08:59:47.853Z,99.90
2019-01-14T09:02:14.691Z,99.90
2019-01-14T09:04:41.671Z,99.90
2019-01-14T09:07:08.503Z,99.90
2019-01-14T09:09:35.392Z,99.90
2019-01-14T09:12:02.449Z,99.90
2019-01-14T09:14:29.406Z,99.90
2019-01-14T09:16:56.264Z,99.90
2019-01-14T09:19:23.115Z,99.90
2019-01-14T09:21:49.979Z,99.90
2019-01-14T09:24:16.839Z,99.90
2019-01-14T09:26:44.986Z,99.90
2019-01-14T09:29:12.191Z,99.90
2019-01-14T09:31:39.048Z,99.90
2019-01-14T09:34:06.351Z,99.90
2019-01-14T09:36:33.203Z,99.90
2019-01-14T09:38:59.915Z,99.90
2019-01-14T09:41:26.884Z,99.90
2019-01-14T09:43:53.619Z,99.90
2019-01-14T09:46:20.467Z,99.90
2019-01-14T09:48:47.915Z,99.90
2019-01-14T09:51:14.619Z,99.90
2019-01-14T09:53:41.511Z,99.90
2019-01-14T09:56:08.254Z,99.90
2019-01-14T09:58:35.087Z,99.90
2019-01-14T10:01:01.955Z,99.90
2019-01-14T10:03:28.831Z,99.90
2019-01-14T10:05:55.692Z,99.90
2019-01-14T10:08:22.675Z,99.90
2019-01-14T10:10:49.567Z,99.90
2019-01-14T10:13:16.329Z,99.90
2019-01-14T10:15:43.184Z,99.90
2019-01-14T10:18:10.179Z,99.90
2019-01-14T10:20:37.131Z,99.90
2019-01-14T10:23:04.040Z,99.90
2019-01-14T10:25:33.156Z,99.90
2019-01-14T10:27:59.864Z,99.90
2019-01-14T10:30:26.866Z,99.90
2019-01-14T10:32:53.839Z,99.90
2019-01-14T10:35:20.839Z,99.90
2019-01-14T10:37:47.804Z,99.90
2019-01-14T10:40:15.039Z,99.90
2019-01-14T10:42:41.979Z,99.90
2019-01-14T10:45:12.291Z,99.90
2019-01-14T10:47:39.107Z,99.90
2019-01-14T10:50:07.294Z,99.90
2019-01-14T10:52:34.143Z,99.90
2019-01-14T10:55:01.131Z,99.90
2019-01-14T10:57:27.989Z,99.90
2019-01-14T10:59:54.894Z,99.90
2019-01-14T11:02:21.855Z,99.90
2019-01-14T11:04:48.674Z,99.90
2019-01-14T11:07:15.579Z,99.90
2019-01-14T11:09:44.608Z,99.90
2019-01-14T11:12:11.177Z,99.90
2019-01-14T11:14:38.019Z,99.90
2019-01-14T11:17:04.819Z,99.90
2019-01-14T11:19:31.783Z,99.90
2019-01-14T11:21:58.671Z,99.90
2019-01-14T11:24:32.616Z,99.90
2019-01-14T11:26:59.531Z,99.90
2019-01-14T11:29:33.496Z,99.90
2019-01-14T11:32:00.431Z,99.90
2019-01-14T11:34:27.251Z,99.90
2019-01-14T11:36:54.072Z,99.90
2019-01-14T11:39:20.923Z,99.90
2019-01-14T11:41:48.920Z,99.90
2019-01-14T11:44:15.711Z,99.90
2019-01-14T11:46:42.415Z,99.90
2019-01-14T11:49:09.436Z,99.90
2019-01-14T11:51:36.162Z,99.90
2019-01-14T11:54:03.419Z,99.90
2019-01-14T11:56:30.142Z,98.60
2019-01-14T11:58:57.115Z,97.40
2019-01-14T12:01:24.071Z,95.80
2019-01-14T12:03:50.936Z,95.10
2019-01-14T12:06:17.786Z,93.40
2019-01-14T12:08:44.647Z,91.70
2019-01-14T12:11:11.491Z,92.10
2019-01-14T12:13:38.347Z,90.80
2019-01-14T12:16:05.185Z,90.00
2019-01-14T12:18:31.908Z,88.80
2019-01-14T12:20:58.873Z,90.00
2019-01-14T12:23:25.755Z,88.40
2019-01-14T12:25:52.720Z,85.90
2019-01-14T12:28:19.426Z,86.70
2019-01-14T12:30:46.390Z,85.80
2019-01-14T12:33:13.257Z,82.50
2019-01-14T12:35:40.122Z,81.10
2019-01-14T12:38:07.088Z,79.90
2019-01-14T12:40:34.055Z,79.50
2019-01-14T12:43:00.758Z,78.80
2019-01-14T12:45:27.576Z,80.40
2019-01-14T12:47:54.443Z,81.00
2019-01-14T12:50:21.503Z,83.30
2019-01-14T12:52:48.637Z,83.50
2019-01-14T12:55:15.914Z,83.10
2019-01-14T12:57:43.216Z,84.00
2019-01-14T13:00:13.130Z,82.90
2019-01-14T13:02:40.127Z,82.20
2019-01-14T13:05:07.558Z,80.30
2019-01-14T13:07:34.510Z,80.20
2019-01-14T13:10:01.220Z,81.00
2019-01-14T13:12:27.919Z,81.80
2019-01-14T13:14:54.703Z,81.10
2019-01-14T13:17:21.693Z,79.00
2019-01-14T13:19:48.537Z,81.10
2019-01-14T13:22:15.284Z,82.10
2019-01-14T13:24:42.039Z,79.30
2019-01-14T13:27:08.969Z,80.10
2019-01-14T13:29:36.015Z,81.20
2019-01-14T13:32:03.146Z,82.50
2019-01-14T13:34:30.007Z,82.60
2019-01-14T13:36:56.940Z,83.20
2019-01-14T13:39:23.807Z,84.00
2019-01-14T13:41:50.791Z,82.70
2019-01-14T13:44:17.671Z,84.00
2019-01-14T13:46:44.506Z,85.20
2019-01-14T13:49:11.462Z,85.00
2019-01-14T13:51:38.431Z,85.00
2019-01-14T13:54:05.411Z,85.10
2019-01-14T13:56:32.179Z,87.50
2019-01-14T13:58:58.937Z,88.10
2019-01-14T14:01:25.788Z,90.20
2019-01-14T14:03:52.794Z,90.20
2019-01-14T14:06:19.516Z,90.40
2019-01-14T14:08:46.463Z,91.00
2019-01-14T14:11:13.248Z,90.90
2019-01-14T14:13:40.118Z,91.80
2019-01-14T14:16:07.087Z,92.20
2019-01-14T14:18:33.812Z,91.90
2019-01-14T14:21:00.647Z,91.60
2019-01-14T14:23:27.447Z,92.10
2019-01-14T14:25:54.291Z,91.80
2019-01-14T14:28:21.223Z,93.00
2019-01-14T14:30:48.187Z,93.50
2019-01-14T14:33:15.043Z,94.10
2019-01-14T14:35:41.796Z,94.20
2019-01-14T14:38:09.529Z,94.90
2019-01-14T14:40:36.332Z,95.40
2019-01-14T14:43:03.931Z,95.40
2019-01-14T14:45:30.965Z,95.30
2019-01-14T14:47:57.878Z,95.50
2019-01-14T14:50:24.591Z,95.80
2019-01-14T14:52:51.563Z,96.10
2019-01-14T14:55:18.423Z,95.90
2019-01-14T14:57:45.410Z,95.60
2019-01-14T15:00:14.759Z,95.60
2019-01-14T15:02:41.646Z,95.70
2019-01-14T15:05:09.075Z,96.00
2019-01-14T15:07:35.899Z,96.20
2019-01-14T15:10:03.886Z,96.20
2019-01-14T15:12:30.847Z,96.40
2019-01-14T15:14:58.543Z,96.60
2019-01-14T15:17:25.303Z,96.80
2019-01-14T15:19:52.166Z,96.20
2019-01-14T15:22:19.018Z,95.90
2019-01-14T15:24:45.871Z,95.80
2019-01-14T15:27:12.611Z,95.80
2019-01-14T15:29:39.363Z,96.00
2019-01-14T15:32:06.335Z,96.10
2019-01-14T15:34:33.186Z,96.50
2019-01-14T15:37:00.214Z,97.00
2019-01-14T15:39:26.919Z,96.90
2019-01-14T15:41:53.671Z,97.30
2019-01-14T15:44:21.042Z,97.10
2019-01-14T15:46:48.059Z,97.50
2019-01-14T15:49:14.805Z,97.90
2019-01-14T15:51:41.893Z,98.10
2019-01-14T15:54:08.671Z,98.50
2019-01-14T15:56:35.532Z,99.00
2019-01-14T15:59:02.421Z,99.10
2019-01-14T16:01:29.314Z,99.10
2019-01-14T16:03:56.199Z,99.30
2019-01-14T16:06:22.955Z,99.40
2019-01-14T16:08:49.815Z,99.50
2019-01-14T16:11:16.667Z,99.60
2019-01-14T16:13:43.951Z,99.80
2019-01-14T16:16:10.914Z,99.70
2019-01-14T16:18:37.643Z,99.80
2019-01-14T16:21:04.610Z,99.80
2019-01-14T16:23:31.496Z,99.40
2019-01-14T16:25:59.512Z,99.50
2019-01-14T16:28:26.275Z,99.50
2019-01-14T16:30:53.162Z,99.60
2019-01-14T16:33:19.942Z,99.50
2019-01-14T16:35:46.759Z,99.30
2019-01-14T16:38:13.759Z,99.00
2019-01-14T16:40:40.551Z,99.10
2019-01-14T16:43:07.612Z,99.00
2019-01-14T16:45:34.695Z,99.10
2019-01-14T16:48:01.572Z,99.20
2019-01-14T16:50:28.295Z,99.40
2019-01-14T16:52:55.169Z,99.70
2019-01-14T16:55:29.990Z,99.60
2019-01-14T16:57:56.747Z,99.50
2019-01-14T17:00:23.497Z,99.60
2019-01-14T17:02:50.200Z,99.60
2019-01-14T17:05:17.149Z,99.80
2019-01-14T17:07:44.407Z,99.70
2019-01-14T17:10:12.751Z,99.80
2019-01-14T17:12:39.739Z,99.90
2019-01-14T17:15:06.955Z,99.90
2019-01-14T17:17:33.819Z,99.90
2019-01-14T17:20:00.771Z,99.90
2019-01-14T17:22:27.507Z,99.70
2019-01-14T17:24:54.446Z,99.90
2019-01-14T17:27:21.209Z,99.90
2019-01-14T17:29:48.083Z,99.90
2019-01-14T17:32:15.061Z,99.90
2019-01-14T17:34:41.799Z,99.90
2019-01-14T17:37:08.685Z,99.90
2019-01-14T17:39:35.391Z,99.90
2019-01-14T17:42:02.523Z,99.90
2019-01-14T17:44:29.327Z,99.90
2019-01-14T17:46:56.079Z,99.90
2019-01-14T17:49:22.874Z,99.90
2019-01-14T17:51:49.858Z,99.90
2019-01-14T17:54:16.711Z,99.90
2019-01-14T17:56:43.688Z,99.90
2019-01-14T17:59:10.401Z,99.90
2019-01-14T18:01:37.111Z,99.90
2019-01-14T18:04:04.363Z,99.90
2019-01-14T18:06:31.208Z,99.90
2019-01-14T18:08:57.991Z,99.90
2019-01-14T18:11:24.970Z,99.90
2019-01-14T18:13:51.840Z,99.90
2019-01-14T18:16:18.707Z,99.90
2019-01-14T18:18:45.506Z,99.90
2019-01-14T18:21:13.920Z,99.90
2019-01-14T18:23:40.883Z,99.90
2019-01-14T18:26:07.820Z,99.90
2019-01-14T18:28:34.723Z,99.90
2019-01-14T18:31:01.708Z,99.90
2019-01-14T18:33:28.675Z,99.90
2019-01-14T18:35:55.651Z,99.90
2019-01-14T18:38:22.559Z,99.90
2019-01-14T18:40:49.283Z,99.90
2019-01-14T18:43:16.055Z,99.90
2019-01-14T18:45:42.802Z,99.90
2019-01-14T18:48:09.827Z,99.90
2019-01-14T18:50:36.687Z,99.90
2019-01-14T18:53:03.708Z,99.90
2019-01-14T18:55:30.563Z,99.90
2019-01-14T18:57:57.296Z,99.90
2019-01-14T19:00:24.271Z,99.90
2019-01-14T19:02:51.130Z,99.90
2019-01-14T19:05:18.019Z,99.90
2019-01-14T19:07:45.081Z,99.90
2019-01-14T19:10:12.103Z,99.90
2019-01-14T19:12:39.050Z,99.90
2019-01-14T19:15:08.675Z,99.90
2019-01-14T19:17:35.539Z,99.90
2019-01-14T19:20:03.816Z,99.90
2019-01-14T19:22:30.781Z,99.90
2019-01-14T19:24:57.506Z,99.90
2019-01-14T19:27:24.419Z,99.90
2019-01-14T19:29:51.263Z,99.90
2019-01-14T19:32:17.990Z,99.90
2019-01-14T19:34:44.714Z,99.90
2019-01-14T19:37:11.927Z,99.90
2019-01-14T19:39:38.727Z,99.90
2019-01-14T19:42:05.743Z,99.90
2019-01-14T19:44:32.687Z,99.90
2019-01-14T19:46:59.707Z,99.90
2019-01-14T19:49:26.580Z,99.90
2019-01-14T19:51:53.479Z,99.90
2019-01-14T19:54:20.411Z,99.90
2019-01-14T19:56:47.242Z,99.90
2019-01-14T19:59:14.099Z,99.90
2019-01-14T20:01:41.059Z,99.90
2019-01-14T20:04:08.248Z,99.90
2019-01-14T20:06:34.987Z,99.90
2019-01-14T20:09:01.735Z,99.90
2019-01-14T20:11:28.675Z,99.90
2019-01-14T20:13:55.875Z,99.90
2019-01-14T20:16:22.738Z,99.90
2019-01-14T20:18:49.903Z,99.90
2019-01-14T20:21:18.892Z,99.90
2019-01-14T20:23:52.170Z,99.90
2019-01-14T20:26:14.423Z,99.90
2019-01-14T20:28:41.176Z,99.90
2019-01-14T20:31:08.039Z,99.90
2019-01-14T20:33:34.799Z,99.90
2019-01-14T20:36:03.709Z,99.90
2019-01-14T20:38:32.151Z,99.90
2019-01-14T20:40:59.412Z,99.90
2019-01-14T20:43:26.181Z,99.90
2019-01-14T20:45:52.927Z,99.90
2019-01-14T20:48:20.710Z,99.90
2019-01-14T20:50:47.459Z,99.90
2019-01-14T20:53:14.323Z,99.90
2019-01-14T20:55:41.880Z,99.90
2019-01-14T20:58:08.772Z,99.90
2019-01-14T21:00:35.732Z,99.90
2019-01-14T21:03:02.712Z,99.90
2019-01-14T21:05:29.589Z,99.90
2019-01-14T21:07:56.728Z,99.90
2019-01-14T21:10:23.667Z,99.90
2019-01-14T21:12:50.635Z,99.90
2019-01-14T21:15:17.758Z,99.90
2019-01-14T21:17:44.595Z,99.90
2019-01-14T21:20:14.791Z,99.90
2019-01-14T21:22:41.690Z,99.70
2019-01-14T21:25:08.658Z,99.90
2019-01-14T21:27:35.742Z,99.90
2019-01-14T21:30:05.017Z,99.80
2019-01-14T21:32:31.979Z,99.90
2019-01-14T21:34:58.986Z,99.90
2019-01-14T21:37:26.933Z,99.90
2019-01-14T21:39:53.831Z,99.90
2019-01-14T21:42:20.665Z,99.90
2019-01-14T21:44:47.571Z,99.90
2019-01-14T21:47:14.435Z,99.90
2019-01-14T21:49:41.723Z,99.90
2019-01-14T21:52:08.471Z,99.90
2019-01-14T21:54:36.117Z,99.90
2019-01-14T21:57:02.971Z,99.80
2019-01-14T21:59:29.966Z,99.90
2019-01-14T22:01:56.811Z,99.90
2019-01-14T22:04:23.692Z,99.90
2019-01-14T22:06:50.695Z,99.90
2019-01-14T22:09:17.631Z,99.90
2019-01-14T22:11:44.639Z,99.90
2019-01-14T22:14:11.343Z,99.90
2019-01-14T22:16:38.406Z,99.90
2019-01-14T22:19:05.439Z,99.90
2019-01-14T22:21:32.411Z,99.90
2019-01-14T22:24:00.037Z,99.90
2019-01-14T22:26:26.863Z,99.90
2019-01-14T22:28:53.594Z,99.90
2019-01-14T22:31:20.805Z,99.90
2019-01-14T22:33:47.690Z,99.90
2019-01-14T22:36:14.669Z,99.90
2019-01-14T22:38:41.823Z,99.90
2019-01-14T22:41:08.779Z,99.90
2019-01-14T22:43:35.511Z,99.90
2019-01-14T22:46:02.480Z,99.90
2019-01-14T22:48:29.438Z,99.90
2019-01-14T22:50:56.182Z,99.90
2019-01-14T22:53:23.044Z,99.90
2019-01-14T22:55:50.111Z,99.90
2019-01-14T22:58:17.048Z,99.90
2019-01-14T23:01:09.532Z,99.90
2019-01-14T23:03:37.086Z,99.90
2019-01-14T23:06:04.203Z,99.90
2019-01-14T23:08:31.071Z,99.90
2019-01-14T23:10:58.170Z,99.90
2019-01-14T23:13:25.046Z,99.90
2019-01-14T23:15:51.908Z,99.90
2019-01-14T23:18:18.875Z,99.90
2019-01-14T23:20:45.743Z,99.90
2019-01-14T23:23:12.611Z,99.90
2019-01-14T23:25:39.471Z,99.90
2019-01-14T23:28:06.413Z,99.90
2019-01-14T23:30:33.411Z,99.90
2019-01-14T23:33:00.343Z,99.90
2019-01-14T23:35:28.769Z,99.90
2019-01-14T23:37:55.832Z,99.90
2019-01-14T23:40:22.718Z,99.90
2019-01-14T23:42:49.583Z,99.90
2019-01-14T23:45:16.478Z,99.90
2019-01-14T23:47:43.188Z,99.90
2019-01-14T23:50:10.315Z,99.90
2019-01-14T23:52:37.287Z,99.90
2019-01-14T23:55:04.718Z,99.90
2019-01-14T23:57:31.571Z,99.90
2019-01-14T23:59:58.402Z,99.90
